createdAt,value
2023-02-15T04:02:27.505Z,-1.00
2023-02-15T04:04:54.726Z,-1.00
2023-02-15T04:07:21.908Z,-1.00
2023-02-15T04:10:07.770Z,-1.00
2023-02-15T04:12:34.948Z,-1.00
2023-02-15T04:15:20.799Z,-1.00
2023-02-15T04:17:48.054Z,-1.10
2023-02-15T04:25:47.168Z,-1.10
2023-02-15T04:30:41.891Z,-1.10
2023-02-15T04:38:04.250Z,-1.10
2023-02-15T04:40:31.477Z,-1.10
2023-02-15T04:42:58.747Z,-1.10
2023-02-15T04:45:25.962Z,-1.10
2023-02-15T04:47:53.215Z,-1.10
2023-02-15T04:50:20.503Z,-1.10
2023-02-15T04:52:47.852Z,-1.10
2023-02-15T04:55:15.334Z,-1.10
2023-02-15T04:57:42.666Z,-1.10
2023-02-15T05:00:10.340Z,-1.10
2023-02-15T05:02:37.580Z,-1.10
2023-02-15T05:05:05.048Z,-1.10
2023-02-15T05:07:32.324Z,-1.10
2023-02-15T05:12:27.132Z,-1.10
2023-02-15T05:14:54.374Z,-1.00
2023-02-15T05:17:21.610Z,-1.10
2023-02-15T05:25:04.754Z,-1.10
2023-02-15T05:27:50.347Z,-1.10
2023-02-15T05:32:45.502Z,-1.10
2023-02-15T05:35:16.723Z,-1.10
2023-02-15T05:37:44.048Z,-1.20
2023-02-15T05:40:11.902Z,-1.30
2023-02-15T05:42:39.297Z,-1.30
2023-02-15T05:45:07.183Z,-1.40
2023-02-15T05:50:02.470Z,-1.60
2023-02-15T05:54:57.242Z,-1.50
2023-02-15T05:57:24.562Z,-1.50
2023-02-15T05:59:52.081Z,-1.50
2023-02-15T06:07:15.000Z,-1.50
2023-02-15T06:12:10.018Z,-1.70
2023-02-15T06:14:37.281Z,-1.80
2023-02-15T06:17:04.469Z,-1.70
2023-02-15T06:19:31.787Z,-1.60
2023-02-15T06:21:59.047Z,-1.60
2023-02-15T06:24:26.308Z,-1.60
2023-02-15T06:29:21.152Z,-1.70
2023-02-15T06:36:43.817Z,-1.50
2023-02-15T06:41:38.806Z,-1.50
2023-02-15T06:44:06.062Z,-1.50
2023-02-15T06:46:33.291Z,-1.30
2023-02-15T06:51:28.291Z,-1.30
2023-02-15T06:56:23.708Z,-1.30
2023-02-15T06:58:51.035Z,-1.20
2023-02-15T07:03:46.163Z,-1.10
2023-02-15T07:06:13.530Z,-1.10
2023-02-15T07:08:40.990Z,-1.00
2023-02-15T07:11:26.813Z,-0.90
2023-02-15T07:13:54.043Z,-0.90
2023-02-15T07:16:21.809Z,-0.80
2023-02-15T07:18:49.105Z,-0.90
2023-02-15T07:23:43.763Z,-0.80
2023-02-15T07:26:10.976Z,-0.70
2023-02-15T07:28:38.218Z,-0.70
2023-02-15T07:31:06.561Z,-0.50
2023-02-15T07:33:34.887Z,-0.50
2023-02-15T07:36:04.871Z,-0.40
2023-02-15T07:38:37.377Z,-0.30
2023-02-15T07:41:09.839Z,-0.20
2023-02-15T07:43:40.598Z,-0.20
2023-02-15T07:46:10.832Z,-0.10
2023-02-15T07:48:39.140Z,0.00
2023-02-15T07:51:08.590Z,0.00
2023-02-15T07:53:36.852Z,0.10
2023-02-15T07:56:07.246Z,0.20
2023-02-15T07:58:53.307Z,0.20
2023-02-15T08:01:31.878Z,0.30
2023-02-15T08:03:59.285Z,0.40
2023-02-15T08:06:30.341Z,0.60
2023-02-15T08:08:57.896Z,0.50
2023-02-15T08:11:30.276Z,0.70
2023-02-15T08:16:46.526Z,0.90
2023-02-15T08:19:21.287Z,1.00
2023-02-15T08:21:53.331Z,1.20
2023-02-15T08:24:23.429Z,1.10
2023-02-15T08:26:52.171Z,1.20
2023-02-15T08:29:23.389Z,1.40
2023-02-15T08:31:56.331Z,1.40
2023-02-15T08:34:23.626Z,1.50
2023-02-15T08:36:51.869Z,1.60
2023-02-15T08:39:19.070Z,1.80
2023-02-15T08:41:47.683Z,2.10
2023-02-15T08:44:17.267Z,2.30
2023-02-15T08:46:46.141Z,2.30
2023-02-15T08:49:17.879Z,2.50
2023-02-15T08:54:21.141Z,3.00
2023-02-15T08:56:48.949Z,3.20
2023-02-15T08:59:22.215Z,3.50
2023-02-15T09:01:51.922Z,3.60
2023-02-15T09:06:49.605Z,3.80
2023-02-15T09:09:18.855Z,4.10
2023-02-15T09:11:53.995Z,4.20
2023-02-15T09:16:53.824Z,4.50
2023-02-15T09:19:23.634Z,4.50
2023-02-15T09:21:51.282Z,4.70
2023-02-15T09:24:19.419Z,4.80
2023-02-15T09:26:48.963Z,4.90
2023-02-15T09:29:18.043Z,5.20
2023-02-15T09:31:48.243Z,5.30
2023-02-15T09:34:18.397Z,5.50
2023-02-15T09:36:47.712Z,5.70
2023-02-15T09:39:22.494Z,5.90
2023-02-15T09:42:28.614Z,5.90
2023-02-15T09:45:20.532Z,6.10
2023-02-15T09:50:36.781Z,6.40
2023-02-15T09:53:35.427Z,6.50
2023-02-15T09:56:38.583Z,6.60
2023-02-15T10:02:03.029Z,7.00
2023-02-15T10:05:06.822Z,7.10
2023-02-15T10:07:52.687Z,7.40
2023-02-15T10:10:50.000Z,7.50
2023-02-15T10:13:37.277Z,7.70
2023-02-15T10:16:29.187Z,7.80
2023-02-15T10:19:13.251Z,8.00
2023-02-15T10:22:01.983Z,8.10
2023-02-15T10:24:54.728Z,8.30
2023-02-15T10:27:22.614Z,8.50
2023-02-15T10:30:12.442Z,8.60
2023-02-15T10:33:01.899Z,8.80
2023-02-15T10:35:47.179Z,8.90
2023-02-15T10:38:22.763Z,9.10
2023-02-15T10:41:01.335Z,9.20
2023-02-15T10:43:56.196Z,9.20
2023-02-15T10:46:40.714Z,9.40
2023-02-15T10:49:38.899Z,9.60
2023-02-15T10:52:28.689Z,9.70
2023-02-15T10:55:38.912Z,9.90
2023-02-15T10:58:18.016Z,10.10
2023-02-15T11:01:00.694Z,10.30
2023-02-15T11:03:52.123Z,10.30
2023-02-15T11:06:22.222Z,10.50
2023-02-15T11:08:55.203Z,10.50
2023-02-15T11:11:36.725Z,10.60
2023-02-15T11:14:12.079Z,10.70
2023-02-15T11:16:45.118Z,10.70
2023-02-15T11:19:31.179Z,10.70
2023-02-15T11:22:05.755Z,10.80
2023-02-15T11:24:39.182Z,10.90
2023-02-15T11:27:18.428Z,10.90
2023-02-15T11:29:55.217Z,11.20
2023-02-15T11:32:39.163Z,11.20
2023-02-15T11:35:12.504Z,11.20
2023-02-15T11:37:51.298Z,11.30
2023-02-15T11:40:26.680Z,11.40
2023-02-15T11:42:59.739Z,11.40
2023-02-15T11:45:39.378Z,11.40
2023-02-15T11:48:12.632Z,11.50
2023-02-15T11:50:40.495Z,11.60
2023-02-15T11:53:12.493Z,11.60
2023-02-15T11:55:40.145Z,11.60
2023-02-15T11:58:31.940Z,11.70
2023-02-15T12:01:17.629Z,11.80
2023-02-15T12:04:00.660Z,11.80
2023-02-15T12:06:35.237Z,11.90
2023-02-15T12:09:06.581Z,12.00
2023-02-15T12:11:41.559Z,12.00
2023-02-15T12:14:16.663Z,12.00
2023-02-15T12:16:54.527Z,12.00
2023-02-15T12:19:30.496Z,12.00
2023-02-15T12:22:00.140Z,11.90
2023-02-15T12:24:34.206Z,11.90
2023-02-15T12:27:26.091Z,12.00
2023-02-15T12:30:04.931Z,12.00
2023-02-15T12:32:46.867Z,12.10
2023-02-15T12:35:40.377Z,12.30
2023-02-15T12:38:10.683Z,12.40
2023-02-15T12:40:39.461Z,12.40
2023-02-15T12:43:26.917Z,12.40
2023-02-15T12:45:54.169Z,12.40
2023-02-15T12:48:22.654Z,12.40
2023-02-15T12:50:56.052Z,12.30
2023-02-15T12:53:33.126Z,12.40
2023-02-15T12:56:01.338Z,12.40
2023-02-15T12:58:32.818Z,12.40
2023-02-15T13:01:16.934Z,12.40
2023-02-15T13:04:02.256Z,12.60
2023-02-15T13:06:33.109Z,12.70
2023-02-15T13:09:19.014Z,12.80
2023-02-15T13:11:47.001Z,12.90
2023-02-15T13:14:24.474Z,13.00
2023-02-15T13:16:54.101Z,13.10
2023-02-15T13:19:36.780Z,13.10
2023-02-15T13:22:11.520Z,13.10
2023-02-15T13:24:44.230Z,13.20
2023-02-15T13:27:19.040Z,13.20
2023-02-15T13:29:50.431Z,13.20
2023-02-15T13:32:23.586Z,13.30
2023-02-15T13:34:51.274Z,13.20
2023-02-15T13:37:27.938Z,13.20
2023-02-15T13:40:21.703Z,13.20
2023-02-15T13:43:34.671Z,13.40
2023-02-15T13:46:34.947Z,13.40
2023-02-15T13:49:32.367Z,13.50
2023-02-15T13:52:13.714Z,13.50
2023-02-15T13:54:54.709Z,13.60
2023-02-15T13:57:40.676Z,13.60
2023-02-15T14:00:25.381Z,13.70
2023-02-15T14:03:05.953Z,13.70
2023-02-15T14:05:55.240Z,13.80
2023-02-15T14:08:56.267Z,13.70
2023-02-15T14:12:00.084Z,13.60
2023-02-15T14:15:04.577Z,13.50
2023-02-15T14:17:55.734Z,13.60
2023-02-15T14:20:47.749Z,13.70
2023-02-15T14:23:31.137Z,13.80
2023-02-15T14:26:07.405Z,14.00
2023-02-15T14:28:44.850Z,13.90
2023-02-15T14:31:15.014Z,13.90
2023-02-15T14:33:53.294Z,13.90
2023-02-15T14:36:21.198Z,13.90
2023-02-15T14:39:42.435Z,14.00
2023-02-15T14:42:19.797Z,14.00
2023-02-15T14:44:53.622Z,14.10
2023-02-15T14:47:31.286Z,14.10
2023-02-15T14:49:58.515Z,14.10
2023-02-15T14:52:25.853Z,14.00
2023-02-15T14:54:57.794Z,14.00
2023-02-15T14:57:26.848Z,14.00
2023-02-15T14:59:58.364Z,14.00
2023-02-15T15:02:25.524Z,13.90
2023-02-15T15:04:52.711Z,13.90
2023-02-15T15:07:26.094Z,13.80
2023-02-15T15:10:18.992Z,13.90
2023-02-15T15:12:54.143Z,13.80
2023-02-15T15:15:33.028Z,13.80
2023-02-15T15:18:11.559Z,13.70
2023-02-15T15:20:49.056Z,13.50
2023-02-15T15:23:17.547Z,13.50
2023-02-15T15:25:47.736Z,13.50
2023-02-15T15:28:33.499Z,13.30
2023-02-15T15:31:24.913Z,13.20
2023-02-15T15:34:15.386Z,13.00
2023-02-15T15:36:45.763Z,13.00
2023-02-15T15:39:33.943Z,12.90
2023-02-15T15:42:48.805Z,12.80
2023-02-15T15:45:18.944Z,12.70
2023-02-15T15:48:14.144Z,12.70
2023-02-15T15:50:42.458Z,12.50
2023-02-15T15:53:23.729Z,12.50
2023-02-15T15:56:04.484Z,12.40
2023-02-15T15:58:37.467Z,12.40
2023-02-15T16:01:14.888Z,12.20
2023-02-15T16:04:06.902Z,12.20
2023-02-15T16:06:40.526Z,12.20
2023-02-15T16:09:19.941Z,12.10
2023-02-15T16:11:51.297Z,12.00
2023-02-15T16:14:30.960Z,11.90
2023-02-15T16:17:02.510Z,11.70
2023-02-15T16:19:36.791Z,11.50
2023-02-15T16:22:07.302Z,11.30
2023-02-15T16:24:53.050Z,11.10
2023-02-15T16:27:36.855Z,10.90
2023-02-15T16:30:24.398Z,10.60
2023-02-15T16:33:18.120Z,10.30
2023-02-15T16:35:57.081Z,10.10
2023-02-15T16:38:43.210Z,9.90
2023-02-15T16:41:15.917Z,9.80
2023-02-15T16:43:47.948Z,9.60
2023-02-15T16:46:26.000Z,9.50
2023-02-15T16:48:57.359Z,9.30
2023-02-15T16:51:30.665Z,9.20
2023-02-15T16:54:03.823Z,9.00
2023-02-15T16:56:32.977Z,8.90
2023-02-15T16:59:01.633Z,8.80
2023-02-15T17:01:32.652Z,8.60
2023-02-15T17:04:38.893Z,8.50
2023-02-15T17:07:17.892Z,8.30
2023-02-15T17:09:53.584Z,8.20
2023-02-15T17:12:56.761Z,8.10
2023-02-15T17:15:38.403Z,8.00
2023-02-15T17:18:19.610Z,7.90
2023-02-15T17:20:48.715Z,7.80
2023-02-15T17:23:33.554Z,7.70
2023-02-15T17:26:12.090Z,7.60
2023-02-15T17:28:52.513Z,7.60
2023-02-15T17:31:21.950Z,7.50
2023-02-15T17:33:50.233Z,7.40
2023-02-15T17:36:23.454Z,7.30
2023-02-15T17:39:04.607Z,7.20
2023-02-15T17:41:38.148Z,7.10
2023-02-15T17:44:05.684Z,7.00
2023-02-15T17:46:37.814Z,6.90
2023-02-15T17:49:05.475Z,6.80
2023-02-15T17:51:35.781Z,6.70
2023-02-15T17:54:22.290Z,6.60
2023-02-15T17:56:49.471Z,6.50
2023-02-15T17:59:16.613Z,6.30
2023-02-15T18:02:08.311Z,6.20
2023-02-15T18:04:55.870Z,6.10
2023-02-15T18:07:41.754Z,6.00
2023-02-15T18:10:37.920Z,5.90
2023-02-15T18:13:05.297Z,5.80
2023-02-15T18:15:32.668Z,5.70
2023-02-15T18:18:00.007Z,5.60
2023-02-15T18:20:36.887Z,5.50
2023-02-15T18:23:04.078Z,5.40
2023-02-15T18:25:31.301Z,5.20
2023-02-15T18:27:58.483Z,5.00
2023-02-15T18:30:26.844Z,5.00
2023-02-15T18:32:56.829Z,4.90
2023-02-15T18:35:28.447Z,4.80
2023-02-15T18:37:56.202Z,4.50
2023-02-15T18:40:26.486Z,4.30
2023-02-15T18:42:54.187Z,4.30
2023-02-15T18:45:25.131Z,4.30
2023-02-15T18:47:52.334Z,4.40
2023-02-15T18:50:21.291Z,4.40
2023-02-15T18:52:53.060Z,4.30
2023-02-15T18:55:25.412Z,4.20
2023-02-15T18:57:55.210Z,3.90
2023-02-15T19:00:33.574Z,3.80
2023-02-15T19:03:02.224Z,3.80
2023-02-15T19:05:30.831Z,3.70
2023-02-15T19:07:59.900Z,3.60
2023-02-15T19:10:29.778Z,3.50
2023-02-15T19:12:59.836Z,3.40
2023-02-15T19:15:30.462Z,3.40
2023-02-15T19:17:58.284Z,3.40
2023-02-15T19:20:38.774Z,3.40
2023-02-15T19:23:19.250Z,3.40
2023-02-15T19:25:48.290Z,3.40
2023-02-15T19:28:21.122Z,3.40
2023-02-15T19:30:48.376Z,3.30
2023-02-15T19:33:18.759Z,3.40
2023-02-15T19:35:52.303Z,3.20
2023-02-15T19:38:23.917Z,2.80
2023-02-15T19:40:51.438Z,2.50
2023-02-15T19:43:25.823Z,2.50
2023-02-15T19:45:53.744Z,2.40
2023-02-15T19:48:20.964Z,2.50
2023-02-15T19:50:49.071Z,2.50
2023-02-15T19:53:27.522Z,2.50
2023-02-15T19:55:55.266Z,2.50
2023-02-15T19:58:23.163Z,2.50
2023-02-15T20:00:51.568Z,2.50
2023-02-15T20:03:18.781Z,2.60
2023-02-15T20:05:48.011Z,2.60
2023-02-15T20:08:21.822Z,2.60
2023-02-15T20:10:49.516Z,2.60
2023-02-15T20:13:19.634Z,2.60
2023-02-15T20:15:47.793Z,2.70
2023-02-15T20:18:15.036Z,2.50
2023-02-15T20:20:51.254Z,2.20
2023-02-15T20:23:24.708Z,2.20
2023-02-15T20:25:52.561Z,2.20
2023-02-15T20:28:23.391Z,2.10
2023-02-15T20:30:51.351Z,2.10
2023-02-15T20:33:20.153Z,2.10
2023-02-15T20:35:48.378Z,2.10
2023-02-15T20:38:28.198Z,2.00
2023-02-15T20:41:15.594Z,2.10
2023-02-15T20:43:43.304Z,2.00
2023-02-15T20:46:10.471Z,2.10
2023-02-15T20:48:37.840Z,2.10
2023-02-15T20:51:06.104Z,2.10
2023-02-15T20:53:33.455Z,2.10
2023-02-15T20:56:00.809Z,2.10
2023-02-15T20:58:30.018Z,2.00
2023-02-15T21:00:58.741Z,2.00
2023-02-15T21:03:30.705Z,1.90
2023-02-15T21:05:59.136Z,1.90
2023-02-15T21:08:27.340Z,1.80
2023-02-15T21:10:54.692Z,1.80
2023-02-15T21:13:23.656Z,1.80
2023-02-15T21:15:52.501Z,1.80
2023-02-15T21:18:23.739Z,1.80
2023-02-15T21:20:54.146Z,1.80
2023-02-15T21:23:25.894Z,1.80
2023-02-15T21:25:57.431Z,1.80
2023-02-15T21:28:27.084Z,1.80
2023-02-15T21:30:55.416Z,1.80
2023-02-15T21:33:22.586Z,1.80
2023-02-15T21:35:53.006Z,1.80
2023-02-15T21:38:25.321Z,1.80
2023-02-15T21:40:52.544Z,1.80
2023-02-15T21:43:43.191Z,1.70
2023-02-15T21:46:36.804Z,1.70
2023-02-15T21:49:07.147Z,1.70
2023-02-15T21:51:53.201Z,1.70
2023-02-15T21:54:21.275Z,1.70
2023-02-15T21:56:50.942Z,1.70
2023-02-15T21:59:18.762Z,1.70
